createdAt,value
2019-06-10T00:00:50.684Z,1009.76
2019-06-10T00:01:48.464Z,1009.79
2019-06-10T00:02:50.647Z,1009.76
2019-06-10T00:03:51.435Z,1009.75
2019-06-10T00:04:50.713Z,1009.76
2019-06-10T00:05:48.441Z,1009.78
2019-06-10T00:06:50.844Z,1009.73
2019-06-10T00:07:48.434Z,1009.75
2019-06-10T00:08:50.492Z,1009.71
2019-06-10T00:09:48.429Z,1009.71
2019-06-10T00:10:50.921Z,1009.72
2019-06-10T00:11:51.483Z,1009.71
2019-06-10T00:12:48.412Z,1009.69
2019-06-10T00:13:50.663Z,1009.64
2019-06-10T00:14:48.403Z,1009.69
2019-06-10T00:15:48.404Z,1009.60
2019-06-10T00:16:50.673Z,1009.60
2019-06-10T00:17:59.313Z,1009.59
2019-06-10T00:18:50.840Z,1009.55
2019-06-10T00:19:48.391Z,1009.57
2019-06-10T00:20:48.380Z,1009.56
2019-06-10T00:21:50.741Z,1009.54
2019-06-10T00:22:48.371Z,1009.56
2019-06-10T00:23:48.363Z,1009.54
2019-06-10T00:24:48.380Z,1009.57
2019-06-10T00:25:48.357Z,1009.59
2019-06-10T00:26:50.868Z,1009.54
2019-06-10T00:27:48.347Z,1009.56
2019-06-10T00:28:48.346Z,1009.51
2019-06-10T00:29:48.342Z,1009.53
2019-06-10T00:30:48.336Z,1009.50
2019-06-10T00:31:50.659Z,1009.51
2019-06-10T00:32:51.528Z,1009.50
2019-06-10T00:33:48.317Z,1009.44
2019-06-10T00:34:50.415Z,1009.43
2019-06-10T00:35:48.313Z,1009.36
2019-06-10T00:36:50.694Z,1009.35
2019-06-10T00:37:48.304Z,1009.32
2019-06-10T00:38:48.301Z,1009.29
2019-06-10T00:39:48.298Z,1009.25
2019-06-10T00:40:48.292Z,1009.24
2019-06-10T00:41:48.286Z,1009.21
2019-06-10T00:42:50.598Z,1009.22
2019-06-10T00:43:48.277Z,1009.21
2019-06-10T00:44:48.271Z,1009.17
2019-06-10T00:45:48.273Z,1009.13
2019-06-10T00:46:48.264Z,1009.09
2019-06-10T00:47:50.753Z,1009.09
2019-06-10T00:48:48.258Z,1009.09
2019-06-10T00:49:48.253Z,1009.10
2019-06-10T00:50:48.240Z,1009.08
2019-06-10T00:51:50.749Z,1009.04
2019-06-10T00:52:48.235Z,1009.05
2019-06-10T00:53:48.230Z,1009.08
2019-06-10T00:54:48.229Z,1009.05
2019-06-10T00:55:48.223Z,1009.04
2019-06-10T00:56:48.223Z,1009.02
2019-06-10T00:57:48.214Z,1008.95
2019-06-10T00:58:48.208Z,1008.95
2019-06-10T00:59:50.659Z,1008.97
2019-06-10T01:00:48.201Z,1008.97
2019-06-10T01:01:50.728Z,1008.93
2019-06-10T01:02:48.186Z,1008.91
2019-06-10T01:03:50.769Z,1008.93
2019-06-10T01:04:48.178Z,1008.93
2019-06-10T01:05:50.700Z,1008.94
2019-06-10T01:06:48.171Z,1008.97
2019-06-10T01:07:50.660Z,1008.94
2019-06-10T01:08:48.159Z,1008.94
2019-06-10T01:09:48.160Z,1008.93
2019-06-10T01:10:48.150Z,1008.91
2019-06-10T01:11:48.149Z,1008.89
2019-06-10T01:12:48.142Z,1008.87
2019-06-10T01:13:48.143Z,1008.87
2019-06-10T01:14:48.132Z,1008.85
2019-06-10T01:15:48.131Z,1008.83
2019-06-10T01:16:50.500Z,1008.83
2019-06-10T01:17:48.120Z,1008.79
2019-06-10T01:18:50.387Z,1008.80
2019-06-10T01:19:48.112Z,1008.79
2019-06-10T01:20:48.637Z,1008.76
2019-06-10T01:21:48.104Z,1008.70
2019-06-10T01:22:48.094Z,1008.72
2019-06-10T01:23:48.094Z,1008.71
2019-06-10T01:24:48.086Z,1008.71
2019-06-10T01:25:48.082Z,1008.76
2019-06-10T01:26:50.441Z,1008.72
2019-06-10T01:27:48.071Z,1008.70
2019-06-10T01:28:48.068Z,1008.71
2019-06-10T01:29:48.071Z,1008.70
2019-06-10T01:30:48.058Z,1008.70
2019-06-10T01:31:48.053Z,1008.67
2019-06-10T01:32:50.500Z,1008.66
2019-06-10T01:33:48.047Z,1008.62
2019-06-10T01:34:48.041Z,1008.61
2019-06-10T01:35:48.031Z,1008.61
2019-06-10T01:36:48.029Z,1008.58
2019-06-10T01:37:48.029Z,1008.55
2019-06-10T01:38:48.022Z,1008.53
2019-06-10T01:39:48.019Z,1008.52
2019-06-10T01:40:48.019Z,1008.54
2019-06-10T01:41:48.009Z,1008.53
2019-06-10T01:42:50.497Z,1008.48
2019-06-10T01:43:48.000Z,1008.48
2019-06-10T01:44:47.996Z,1008.44
2019-06-10T01:45:47.990Z,1008.41
2019-06-10T01:46:47.991Z,1008.42
2019-06-10T01:47:47.976Z,1008.41
2019-06-10T01:48:48.450Z,1008.41
2019-06-10T01:49:47.987Z,1008.41
2019-06-10T01:50:47.964Z,1008.38
2019-06-10T01:51:47.966Z,1008.37
2019-06-10T01:52:47.969Z,1008.38
2019-06-10T01:53:47.949Z,1008.36
2019-06-10T01:54:47.949Z,1008.39
2019-06-10T01:55:47.941Z,1008.39
2019-06-10T01:56:47.939Z,1008.33
2019-06-10T01:57:47.950Z,1008.34
2019-06-10T01:58:51.339Z,1008.31
2019-06-10T01:59:47.923Z,1008.27
2019-06-10T02:00:47.921Z,1008.28
2019-06-10T02:01:47.918Z,1008.26
2019-06-10T02:02:47.928Z,1008.24
2019-06-10T02:03:47.904Z,1008.24
2019-06-10T02:04:47.902Z,1008.24
2019-06-10T02:05:47.906Z,1008.22
2019-06-10T02:06:47.890Z,1008.24
2019-06-10T02:07:47.891Z,1008.26
2019-06-10T02:08:47.883Z,1008.26
2019-06-10T02:09:47.876Z,1008.18
2019-06-10T02:10:47.874Z,1008.22
2019-06-10T02:11:47.875Z,1008.18
2019-06-10T02:12:47.860Z,1008.16
2019-06-10T02:13:47.857Z,1008.13
2019-06-10T02:14:47.854Z,1008.10
2019-06-10T02:15:47.846Z,1008.06
2019-06-10T02:16:47.846Z,1008.09
2019-06-10T02:17:47.836Z,1008.07
2019-06-10T02:18:57.665Z,1008.08
2019-06-10T02:19:47.828Z,1008.05
2019-06-10T02:20:47.820Z,1008.08
2019-06-10T02:21:47.823Z,1008.06
2019-06-10T02:22:47.814Z,1008.05
2019-06-10T02:23:47.811Z,1008.05
2019-06-10T02:24:47.800Z,1007.96
2019-06-10T02:25:47.801Z,1007.95
2019-06-10T02:26:47.791Z,1007.91
2019-06-10T02:27:47.799Z,1007.88
2019-06-10T02:28:47.787Z,1007.84
2019-06-10T02:29:47.779Z,1007.85
2019-06-10T02:30:51.979Z,1007.83
2019-06-10T02:31:47.773Z,1007.83
2019-06-10T02:32:47.765Z,1007.83
2019-06-10T02:33:47.761Z,1007.82
2019-06-10T02:35:03.636Z,1007.82
2019-06-10T02:35:49.135Z,1007.80
2019-06-10T02:36:47.750Z,1007.77
2019-06-10T02:37:47.741Z,1007.76
2019-06-10T02:38:47.739Z,1007.72
2019-06-10T02:39:47.736Z,1007.72
2019-06-10T02:40:47.731Z,1007.70
2019-06-10T02:41:47.731Z,1007.73
2019-06-10T02:42:47.717Z,1007.67
2019-06-10T02:43:47.714Z,1007.67
2019-06-10T02:44:47.710Z,1007.66
2019-06-10T02:45:47.701Z,1007.63
2019-06-10T02:46:47.704Z,1007.58
2019-06-10T02:47:47.696Z,1007.55
2019-06-10T02:48:47.690Z,1007.55
2019-06-10T02:49:57.429Z,1007.54
2019-06-10T02:50:47.682Z,1007.51
2019-06-10T02:51:47.671Z,1007.52
2019-06-10T02:52:47.667Z,1007.46
2019-06-10T02:53:47.665Z,1007.44
2019-06-10T02:54:47.666Z,1007.48
2019-06-10T02:55:47.657Z,1007.41
2019-06-10T02:56:47.656Z,1007.42
2019-06-10T02:57:47.686Z,1007.42
2019-06-10T02:58:47.644Z,1007.45
2019-06-10T02:59:47.640Z,1007.43
2019-06-10T03:00:49.055Z,1007.42
2019-06-10T03:01:47.631Z,1007.41
2019-06-10T03:02:47.627Z,1007.41
2019-06-10T03:03:49.534Z,1007.38
2019-06-10T03:04:47.610Z,1007.41
2019-06-10T03:05:47.620Z,1007.41
2019-06-10T03:06:47.612Z,1007.39
2019-06-10T03:07:47.606Z,1007.37
2019-06-10T03:08:47.592Z,1007.40
2019-06-10T03:09:47.594Z,1007.40
2019-06-10T03:10:47.584Z,1007.37
2019-06-10T03:11:47.591Z,1007.41
2019-06-10T03:12:47.577Z,1007.43
2019-06-10T03:13:47.569Z,1007.38
2019-06-10T03:14:47.563Z,1007.34
2019-06-10T03:15:47.558Z,1007.39
2019-06-10T03:16:47.558Z,1007.39
2019-06-10T03:17:47.546Z,1007.34
2019-06-10T03:18:47.546Z,1007.37
2019-06-10T03:19:50.532Z,1007.38
2019-06-10T03:20:47.535Z,1007.38
2019-06-10T03:21:47.531Z,1007.39
2019-06-10T03:22:47.524Z,1007.41
2019-06-10T03:23:47.523Z,1007.39
2019-06-10T03:24:47.512Z,1007.40
2019-06-10T03:25:49.277Z,1007.39
2019-06-10T03:26:47.505Z,1007.36
2019-06-10T03:27:47.498Z,1007.39
2019-06-10T03:28:49.289Z,1007.39
2019-06-10T03:29:47.494Z,1007.40
2019-06-10T03:30:53.668Z,1007.41
2019-06-10T03:31:48.564Z,1007.40
2019-06-10T03:32:47.886Z,1007.39
2019-06-10T03:33:48.121Z,1007.40
2019-06-10T03:34:48.062Z,1007.40
2019-06-10T03:35:47.462Z,1007.41
2019-06-10T03:36:47.453Z,1007.37
2019-06-10T03:37:47.447Z,1007.36
2019-06-10T03:38:47.450Z,1007.37
2019-06-10T03:39:49.284Z,1007.37
2019-06-10T03:40:49.282Z,1007.36
2019-06-10T03:41:47.431Z,1007.39
2019-06-10T03:42:47.427Z,1007.38
2019-06-10T03:43:49.288Z,1007.39
2019-06-10T03:44:47.415Z,1007.39
2019-06-10T03:45:47.411Z,1007.39
2019-06-10T03:46:49.282Z,1007.39
2019-06-10T03:47:47.403Z,1007.41
2019-06-10T03:48:47.410Z,1007.34
2019-06-10T03:49:52.551Z,1007.32
2019-06-10T03:50:47.381Z,1007.33
2019-06-10T03:51:47.378Z,1007.29
2019-06-10T03:52:47.378Z,1007.27
2019-06-10T03:53:47.375Z,1007.24
2019-06-10T03:54:47.367Z,1007.22
2019-06-10T03:55:47.362Z,1007.24
2019-06-10T03:56:47.378Z,1007.20
2019-06-10T03:57:47.353Z,1007.26
2019-06-10T03:58:47.350Z,1007.23
2019-06-10T03:59:47.341Z,1007.25
2019-06-10T04:00:47.338Z,1007.27
2019-06-10T04:01:47.335Z,1007.26
2019-06-10T04:02:47.328Z,1007.29
2019-06-10T04:03:47.324Z,1007.28
2019-06-10T04:04:47.320Z,1007.30
2019-06-10T04:05:47.316Z,1007.28
2019-06-10T04:06:47.307Z,1007.29
2019-06-10T04:07:47.303Z,1007.26
2019-06-10T04:08:47.305Z,1007.29
2019-06-10T04:09:47.297Z,1007.24
2019-06-10T04:10:47.292Z,1007.23
2019-06-10T04:11:47.289Z,1007.21
2019-06-10T04:12:47.282Z,1007.20
2019-06-10T04:13:47.275Z,1007.21
2019-06-10T04:14:47.277Z,1007.23
2019-06-10T04:15:47.267Z,1007.26
2019-06-10T04:16:47.267Z,1007.26
2019-06-10T04:17:47.273Z,1007.23
2019-06-10T04:18:47.256Z,1007.22
2019-06-10T04:19:47.250Z,1007.23
2019-06-10T04:20:47.243Z,1007.22
2019-06-10T04:21:47.241Z,1007.23
2019-06-10T04:22:47.235Z,1007.17
2019-06-10T04:23:47.232Z,1007.11
2019-06-10T04:24:47.224Z,1007.09
2019-06-10T04:25:47.225Z,1007.09
2019-06-10T04:26:47.226Z,1007.06
2019-06-10T04:27:47.215Z,1007.06
2019-06-10T04:28:47.208Z,1007.05
2019-06-10T04:29:47.205Z,1007.07
2019-06-10T04:30:47.199Z,1007.06
2019-06-10T04:31:47.196Z,1007.08
2019-06-10T04:32:48.816Z,1007.07
2019-06-10T04:33:47.187Z,1007.03
2019-06-10T04:34:47.181Z,1007.05
2019-06-10T04:35:47.175Z,1007.04
2019-06-10T04:36:47.175Z,1006.98
2019-06-10T04:37:47.171Z,1006.96
2019-06-10T04:38:47.183Z,1006.94
2019-06-10T04:39:47.166Z,1006.96
2019-06-10T04:40:47.153Z,1006.95
2019-06-10T04:41:47.153Z,1006.95
2019-06-10T04:42:47.142Z,1006.92
2019-06-10T04:43:47.140Z,1006.95
2019-06-10T04:44:47.137Z,1006.92
2019-06-10T04:45:47.133Z,1006.93
2019-06-10T04:46:47.126Z,1006.90
2019-06-10T04:47:47.126Z,1006.89
2019-06-10T04:48:47.121Z,1006.88
2019-06-10T04:49:47.112Z,1006.90
2019-06-10T04:50:47.103Z,1006.89
2019-06-10T04:51:47.102Z,1006.85
2019-06-10T04:52:47.116Z,1006.90
2019-06-10T04:53:47.100Z,1006.91
2019-06-10T04:54:47.091Z,1006.92
2019-06-10T04:55:47.087Z,1006.93
2019-06-10T04:56:47.081Z,1006.93
2019-06-10T04:57:47.079Z,1006.89
2019-06-10T04:58:47.073Z,1006.88
2019-06-10T04:59:47.074Z,1006.90
2019-06-10T05:00:47.066Z,1006.85
2019-06-10T05:01:47.066Z,1006.86
2019-06-10T05:02:47.058Z,1006.84
2019-06-10T05:03:47.056Z,1006.85
2019-06-10T05:04:47.053Z,1006.84
2019-06-10T05:05:47.043Z,1006.79
2019-06-10T05:06:47.039Z,1006.77
2019-06-10T05:07:47.031Z,1006.80
2019-06-10T05:08:47.029Z,1006.78
2019-06-10T05:09:47.029Z,1006.80
2019-06-10T05:10:47.024Z,1006.79
2019-06-10T05:11:47.016Z,1006.76
2019-06-10T05:12:47.016Z,1006.77
2019-06-10T05:13:47.010Z,1006.76
2019-06-10T05:14:47.005Z,1006.81
2019-06-10T05:15:47.001Z,1006.79
2019-06-10T05:16:46.997Z,1006.81
2019-06-10T05:17:46.994Z,1006.77
2019-06-10T05:18:46.986Z,1006.80
2019-06-10T05:19:46.980Z,1006.77
2019-06-10T05:20:57.734Z,1006.81
2019-06-10T05:21:46.978Z,1006.82
2019-06-10T05:22:46.978Z,1006.80
2019-06-10T05:23:46.963Z,1006.76
2019-06-10T05:24:46.961Z,1006.79
2019-06-10T05:25:46.959Z,1006.73
2019-06-10T05:26:46.955Z,1006.70
2019-06-10T05:27:46.947Z,1006.71
2019-06-10T05:28:46.944Z,1006.72
2019-06-10T05:29:46.939Z,1006.68
2019-06-10T05:30:46.939Z,1006.71
2019-06-10T05:31:46.937Z,1006.69
2019-06-10T05:32:46.926Z,1006.74
2019-06-10T05:33:46.926Z,1006.72
2019-06-10T05:34:46.918Z,1006.75
2019-06-10T05:35:46.914Z,1006.72
2019-06-10T05:36:46.911Z,1006.75
2019-06-10T05:37:46.908Z,1006.79
2019-06-10T05:38:46.906Z,1006.78
2019-06-10T05:39:46.900Z,1006.80
2019-06-10T05:40:46.896Z,1006.82
2019-06-10T05:41:49.982Z,1006.86
2019-06-10T05:42:46.888Z,1006.82
2019-06-10T05:43:46.889Z,1006.82
2019-06-10T05:44:46.882Z,1006.80
2019-06-10T05:45:48.866Z,1006.86
2019-06-10T05:46:48.857Z,1006.85
2019-06-10T05:47:46.867Z,1006.88
2019-06-10T05:48:46.861Z,1006.87
2019-06-10T05:49:46.858Z,1006.87
2019-06-10T05:50:59.238Z,1006.89
2019-06-10T05:51:46.857Z,1006.83
2019-06-10T05:52:46.858Z,1006.81
2019-06-10T05:53:46.850Z,1006.83
2019-06-10T05:54:46.840Z,1006.83
2019-06-10T05:55:46.859Z,1006.86
2019-06-10T05:56:46.839Z,1006.86
2019-06-10T05:57:46.836Z,1006.88
2019-06-10T05:58:46.856Z,1006.84
2019-06-10T05:59:46.822Z,1006.83
2019-06-10T06:00:46.824Z,1006.84
2019-06-10T06:01:46.818Z,1006.81
2019-06-10T06:02:46.809Z,1006.82
2019-06-10T06:03:46.815Z,1006.79
2019-06-10T06:04:48.370Z,1006.80
2019-06-10T06:05:46.808Z,1006.78
2019-06-10T06:06:46.803Z,1006.80
2019-06-10T06:08:01.071Z,1006.79
2019-06-10T06:08:46.797Z,1006.75
2019-06-10T06:09:46.789Z,1006.79
2019-06-10T06:10:46.788Z,1006.75
2019-06-10T06:11:46.787Z,1006.74
2019-06-10T06:12:46.784Z,1006.76
2019-06-10T06:13:46.779Z,1006.71
2019-06-10T06:14:46.779Z,1006.76
2019-06-10T06:15:46.774Z,1006.74
2019-06-10T06:16:46.774Z,1006.76
2019-06-10T06:17:46.773Z,1006.73
2019-06-10T06:18:46.764Z,1006.73
2019-06-10T06:19:46.766Z,1006.74
2019-06-10T06:20:46.762Z,1006.72
2019-06-10T06:21:47.933Z,1006.69
2019-06-10T06:22:46.761Z,1006.69
2019-06-10T06:23:46.756Z,1006.61
2019-06-10T06:24:46.753Z,1006.62
2019-06-10T06:25:47.153Z,1006.68
2019-06-10T06:26:46.749Z,1006.63
2019-06-10T06:27:46.749Z,1006.66
2019-06-10T06:28:46.742Z,1006.69
2019-06-10T06:29:46.746Z,1006.71
2019-06-10T06:30:46.744Z,1006.68
2019-06-10T06:31:46.742Z,1006.69
2019-06-10T06:32:46.740Z,1006.70
2019-06-10T06:33:46.740Z,1006.73
2019-06-10T06:34:46.733Z,1006.76
2019-06-10T06:35:46.900Z,1006.74
2019-06-10T06:36:46.736Z,1006.78
2019-06-10T06:37:46.731Z,1006.75
2019-06-10T06:38:46.730Z,1006.73
2019-06-10T06:39:46.731Z,1006.72
2019-06-10T06:40:46.733Z,1006.75
2019-06-10T06:41:46.730Z,1006.77
2019-06-10T06:42:46.724Z,1006.75
2019-06-10T06:43:46.728Z,1006.73
2019-06-10T06:44:46.726Z,1006.73
2019-06-10T06:45:46.724Z,1006.72
2019-06-10T06:46:46.723Z,1006.75
2019-06-10T06:47:46.721Z,1006.71
2019-06-10T06:48:46.731Z,1006.69
2019-06-10T06:49:46.717Z,1006.65
2019-06-10T06:51:01.681Z,1006.67
2019-06-10T06:51:54.765Z,1006.65
2019-06-10T06:53:19.055Z,1006.64
2019-06-10T06:53:52.133Z,1006.61
2019-06-10T06:54:46.711Z,1006.61
2019-06-10T06:55:46.712Z,1006.62
2019-06-10T06:56:46.711Z,1006.62
2019-06-10T06:57:46.705Z,1006.63
2019-06-10T06:58:46.704Z,1006.63
2019-06-10T06:59:46.706Z,1006.65
2019-06-10T07:01:00.252Z,1006.66
2019-06-10T07:01:46.703Z,1006.67
2019-06-10T07:02:46.704Z,1006.65
2019-06-10T07:03:46.704Z,1006.68
2019-06-10T07:04:46.695Z,1006.69
2019-06-10T07:05:46.697Z,1006.68
2019-06-10T07:06:46.698Z,1006.73
2019-06-10T07:07:46.693Z,1006.77
2019-06-10T07:09:00.323Z,1006.78
2019-06-10T07:09:46.693Z,1006.78
2019-06-10T07:10:46.692Z,1006.80
2019-06-10T07:11:46.867Z,1006.80
2019-06-10T07:12:46.687Z,1006.78
2019-06-10T07:13:46.689Z,1006.80
2019-06-10T07:14:46.704Z,1006.75
2019-06-10T07:15:48.431Z,1006.73
2019-06-10T07:16:48.417Z,1006.74
2019-06-10T07:17:46.683Z,1006.69
2019-06-10T07:18:50.110Z,1006.74
2019-06-10T07:19:46.679Z,1006.65
2019-06-10T07:20:46.679Z,1006.68
2019-06-10T07:22:07.418Z,1006.64
2019-06-10T07:22:46.871Z,1006.63
2019-06-10T07:23:47.165Z,1006.61
2019-06-10T07:24:47.743Z,1006.58
2019-06-10T07:25:47.697Z,1006.56
2019-06-10T07:26:52.100Z,1006.56
2019-06-10T07:27:47.090Z,1006.59
2019-06-10T07:28:47.487Z,1006.55
2019-06-10T07:29:47.461Z,1006.53
2019-06-10T07:30:51.759Z,1006.55
2019-06-10T07:31:50.121Z,1006.59
2019-06-10T07:32:47.404Z,1006.55
2019-06-10T07:33:47.415Z,1006.56
2019-06-10T07:34:47.013Z,1006.56
2019-06-10T07:35:46.661Z,1006.56
2019-06-10T07:36:46.663Z,1006.50
2019-06-10T07:37:46.664Z,1006.55
2019-06-10T07:38:49.071Z,1006.57
2019-06-10T07:39:46.656Z,1006.56
2019-06-10T07:40:46.678Z,1006.58
2019-06-10T07:41:47.871Z,1006.56
2019-06-10T07:42:46.649Z,1006.55
2019-06-10T07:43:49.655Z,1006.55
2019-06-10T07:44:46.650Z,1006.55
2019-06-10T07:45:48.098Z,1006.62
2019-06-10T07:46:46.653Z,1006.62
2019-06-10T07:47:46.648Z,1006.65
2019-06-10T07:48:48.673Z,1006.64
2019-06-10T07:49:46.648Z,1006.61
2019-06-10T07:50:46.647Z,1006.61
2019-06-10T07:51:46.715Z,1006.56
2019-06-10T07:52:46.974Z,1006.55
2019-06-10T07:53:46.939Z,1006.56
2019-06-10T07:54:46.647Z,1006.51
2019-06-10T07:55:46.774Z,1006.46
2019-06-10T07:56:50.380Z,1006.49
2019-06-10T07:57:46.645Z,1006.45
2019-06-10T07:58:47.697Z,1006.41
2019-06-10T07:59:46.643Z,1006.47
2019-06-10T08:00:48.464Z,1006.41
2019-06-10T08:01:51.444Z,1006.46
2019-06-10T08:02:46.638Z,1006.45
2019-06-10T08:03:46.743Z,1006.45
2019-06-10T08:04:46.641Z,1006.50
2019-06-10T08:05:46.819Z,1006.49
2019-06-10T08:06:49.791Z,1006.47
2019-06-10T08:07:48.823Z,1006.44
2019-06-10T08:08:47.258Z,1006.42
2019-06-10T08:09:47.475Z,1006.41
2019-06-10T08:10:48.142Z,1006.46
2019-06-10T08:11:48.304Z,1006.47
2019-06-10T08:12:48.345Z,1006.49
2019-06-10T08:13:47.982Z,1006.48
2019-06-10T08:14:47.908Z,1006.46
2019-06-10T08:15:48.232Z,1006.43
2019-06-10T08:16:46.823Z,1006.45
2019-06-10T08:17:46.651Z,1006.47
2019-06-10T08:19:14.000Z,1006.43
2019-06-10T08:19:50.819Z,1006.47
2019-06-10T08:20:47.703Z,1006.50
2019-06-10T08:21:48.987Z,1006.51
2019-06-10T08:22:54.071Z,1006.52
2019-06-10T08:23:47.491Z,1006.50
2019-06-10T08:24:47.843Z,1006.47
2019-06-10T08:25:53.178Z,1006.48
2019-06-10T08:26:47.789Z,1006.46
2019-06-10T08:27:47.818Z,1006.47
2019-06-10T08:28:48.326Z,1006.45
2019-06-10T08:29:49.504Z,1006.41
2019-06-10T08:30:48.163Z,1006.37
2019-06-10T08:31:49.517Z,1006.36
2019-06-10T08:32:48.967Z,1006.39
2019-06-10T08:33:47.877Z,1006.34
2019-06-10T08:34:48.091Z,1006.32
2019-06-10T08:35:56.428Z,1006.30
2019-06-10T08:36:50.419Z,1006.26
2019-06-10T08:37:47.473Z,1006.25
2019-06-10T08:38:48.673Z,1006.21
2019-06-10T08:39:47.696Z,1006.21
2019-06-10T08:40:48.449Z,1006.21
2019-06-10T08:41:48.829Z,1006.24
2019-06-10T08:42:48.753Z,1006.25
2019-06-10T08:43:48.469Z,1006.26
2019-06-10T08:44:48.491Z,1006.25
2019-06-10T08:45:47.494Z,1006.28
2019-06-10T08:46:47.336Z,1006.26
2019-06-10T08:47:47.717Z,1006.27
2019-06-10T08:48:48.169Z,1006.24
2019-06-10T08:49:49.009Z,1006.20
2019-06-10T08:50:49.948Z,1006.20
2019-06-10T08:51:49.777Z,1006.22
2019-06-10T08:53:03.945Z,1006.18
2019-06-10T08:53:49.856Z,1006.15
2019-06-10T08:54:49.829Z,1006.15
2019-06-10T08:55:49.301Z,1006.14
2019-06-10T08:56:50.316Z,1006.14
2019-06-10T08:57:49.421Z,1006.15
2019-06-10T08:58:49.665Z,1006.15
2019-06-10T08:59:49.003Z,1006.16
2019-06-10T09:00:49.335Z,1006.16
2019-06-10T09:01:51.436Z,1006.19
2019-06-10T09:02:49.069Z,1006.17
2019-06-10T09:03:49.352Z,1006.15
2019-06-10T09:04:50.073Z,1006.14
2019-06-10T09:05:49.859Z,1006.14
2019-06-10T09:06:50.377Z,1006.10
2019-06-10T09:07:49.989Z,1006.06
2019-06-10T09:08:49.945Z,1006.07
2019-06-10T09:09:49.153Z,1006.08
2019-06-10T09:10:49.795Z,1006.04
2019-06-10T09:11:49.440Z,1006.06
2019-06-10T09:12:50.462Z,1006.04
2019-06-10T09:13:48.325Z,1006.03
2019-06-10T09:14:48.762Z,1006.02
2019-06-10T09:16:03.708Z,1005.99
2019-06-10T09:16:48.914Z,1006.00
2019-06-10T09:17:49.587Z,1005.99
2019-06-10T09:18:49.307Z,1005.95
2019-06-10T09:19:49.176Z,1005.93
2019-06-10T09:20:52.407Z,1005.93
2019-06-10T09:21:51.085Z,1005.90
2019-06-10T09:22:50.175Z,1005.89
2019-06-10T09:23:51.519Z,1005.85
2019-06-10T09:24:49.407Z,1005.80
2019-06-10T09:25:50.473Z,1005.83
2019-06-10T09:26:50.144Z,1005.84
2019-06-10T09:27:49.604Z,1005.84
2019-06-10T09:28:52.370Z,1005.87
2019-06-10T09:29:49.769Z,1005.84
2019-06-10T09:30:52.550Z,1005.86
2019-06-10T09:31:51.296Z,1005.88
2019-06-10T09:32:49.927Z,1005.88
2019-06-10T09:33:50.753Z,1005.86
2019-06-10T09:34:52.199Z,1005.94
2019-06-10T09:35:50.350Z,1005.89
2019-06-10T09:36:51.793Z,1005.92
2019-06-10T09:37:49.997Z,1005.91
2019-06-10T09:38:49.036Z,1005.92
2019-06-10T09:39:52.477Z,1005.90
2019-06-10T09:40:51.546Z,1005.84
2019-06-10T09:41:55.377Z,1005.84
2019-06-10T09:42:52.062Z,1005.82
2019-06-10T09:43:51.627Z,1005.82
2019-06-10T09:44:49.200Z,1005.84
2019-06-10T09:45:50.393Z,1005.86
2019-06-10T09:46:48.872Z,1005.87
2019-06-10T09:47:50.577Z,1005.89
2019-06-10T09:48:51.206Z,1005.91
2019-06-10T09:49:49.176Z,1005.95
2019-06-10T09:50:50.808Z,1005.97
2019-06-10T09:51:50.091Z,1005.97
2019-06-10T09:52:50.436Z,1006.00
2019-06-10T09:53:56.321Z,1005.96
2019-06-10T09:54:51.609Z,1006.00
2019-06-10T09:55:49.723Z,1006.00
2019-06-10T09:56:48.816Z,1005.98
2019-06-10T09:57:49.726Z,1005.95
2019-06-10T09:58:49.336Z,1005.94
2019-06-10T09:59:51.364Z,1005.96
2019-06-10T10:00:49.370Z,1005.89
2019-06-10T10:01:50.994Z,1005.88
2019-06-10T10:02:50.273Z,1005.91
2019-06-10T10:03:52.089Z,1005.87
2019-06-10T10:04:52.894Z,1005.89
2019-06-10T10:05:59.302Z,1005.90
2019-06-10T10:06:50.195Z,1005.87
2019-06-10T10:07:50.782Z,1005.90
2019-06-10T10:08:52.439Z,1005.90
2019-06-10T10:09:51.389Z,1005.90
2019-06-10T10:10:51.090Z,1005.88
2019-06-10T10:11:48.875Z,1005.85
2019-06-10T10:12:49.037Z,1005.84
2019-06-10T10:13:49.455Z,1005.85
2019-06-10T10:14:49.829Z,1005.83
2019-06-10T10:15:48.137Z,1005.82
2019-06-10T10:16:52.271Z,1005.82
2019-06-10T10:17:48.306Z,1005.82
2019-06-10T10:18:49.423Z,1005.80
2019-06-10T10:19:49.670Z,1005.82
2019-06-10T10:20:49.771Z,1005.78
2019-06-10T10:21:50.209Z,1005.74
2019-06-10T10:22:48.851Z,1005.73
2019-06-10T10:23:58.316Z,1005.70
2019-06-10T10:24:47.620Z,1005.68
2019-06-10T10:25:48.224Z,1005.68
2019-06-10T10:26:50.856Z,1005.69
2019-06-10T10:27:50.700Z,1005.65
2019-06-10T10:28:49.882Z,1005.64
2019-06-10T10:29:49.982Z,1005.62
2019-06-10T10:30:50.306Z,1005.57
2019-06-10T10:31:49.460Z,1005.55
2019-06-10T10:32:49.482Z,1005.55
2019-06-10T10:33:48.404Z,1005.61
2019-06-10T10:34:48.707Z,1005.62
2019-06-10T10:35:48.032Z,1005.63
2019-06-10T10:36:48.726Z,1005.60
2019-06-10T10:37:48.511Z,1005.62
2019-06-10T10:38:48.783Z,1005.58
2019-06-10T10:39:49.042Z,1005.58
2019-06-10T10:40:49.302Z,1005.56
2019-06-10T10:41:48.684Z,1005.57
2019-06-10T10:42:53.049Z,1005.48
2019-06-10T10:43:49.341Z,1005.54
2019-06-10T10:44:50.949Z,1005.53
2019-06-10T10:45:50.333Z,1005.54
2019-06-10T10:46:47.576Z,1005.55
2019-06-10T10:47:47.471Z,1005.52
2019-06-10T10:48:49.108Z,1005.56
2019-06-10T10:49:47.489Z,1005.53
2019-06-10T10:50:47.538Z,1005.54
2019-06-10T10:51:47.497Z,1005.48
2019-06-10T10:52:48.614Z,1005.46
2019-06-10T10:53:57.296Z,1005.38
2019-06-10T10:54:47.933Z,1005.34
2019-06-10T10:55:47.532Z,1005.35
2019-06-10T10:56:49.244Z,1005.33
2019-06-10T10:57:47.548Z,1005.35
2019-06-10T10:58:48.938Z,1005.40
2019-06-10T10:59:47.814Z,1005.35
2019-06-10T11:00:49.899Z,1005.35
2019-06-10T11:01:47.602Z,1005.33
2019-06-10T11:02:50.605Z,1005.32
2019-06-10T11:03:49.545Z,1005.31
2019-06-10T11:04:47.940Z,1005.29
2019-06-10T11:05:49.841Z,1005.27
2019-06-10T11:06:47.797Z,1005.30
2019-06-10T11:07:47.760Z,1005.34
2019-06-10T11:08:48.311Z,1005.31
2019-06-10T11:09:48.541Z,1005.30
2019-06-10T11:10:49.463Z,1005.28
2019-06-10T11:11:48.852Z,1005.27
2019-06-10T11:12:49.005Z,1005.27
2019-06-10T11:13:47.651Z,1005.25
2019-06-10T11:14:47.691Z,1005.23
2019-06-10T11:15:49.009Z,1005.24
2019-06-10T11:16:47.669Z,1005.28
2019-06-10T11:17:47.688Z,1005.23
2019-06-10T11:18:47.681Z,1005.29
2019-06-10T11:19:47.730Z,1005.26
2019-06-10T11:20:47.694Z,1005.24
2019-06-10T11:21:47.701Z,1005.24
2019-06-10T11:22:47.710Z,1005.23
2019-06-10T11:23:48.095Z,1005.21
2019-06-10T11:24:49.173Z,1005.18
2019-06-10T11:25:47.818Z,1005.12
2019-06-10T11:26:47.873Z,1005.09
2019-06-10T11:27:48.485Z,1005.05
2019-06-10T11:28:47.734Z,1005.08
2019-06-10T11:29:48.160Z,1005.08
2019-06-10T11:30:47.745Z,1005.10
2019-06-10T11:31:48.452Z,1005.12
2019-06-10T11:32:48.003Z,1005.13
2019-06-10T11:33:48.718Z,1005.14
2019-06-10T11:34:47.831Z,1005.14
2019-06-10T11:35:48.776Z,1005.11
2019-06-10T11:36:48.036Z,1005.09
2019-06-10T11:37:48.884Z,1005.10
2019-06-10T11:38:48.595Z,1005.11
2019-06-10T11:39:48.153Z,1005.09
2019-06-10T11:40:49.198Z,1005.07
2019-06-10T11:41:48.142Z,1005.05
2019-06-10T11:42:48.345Z,1005.02
2019-06-10T11:43:48.349Z,1004.95
2019-06-10T11:44:48.381Z,1004.92
2019-06-10T11:45:52.656Z,1004.95
2019-06-10T11:46:48.611Z,1004.90
2019-06-10T11:47:49.374Z,1004.90
2019-06-10T11:48:48.940Z,1004.89
2019-06-10T11:49:48.983Z,1004.89
2019-06-10T11:50:49.149Z,1004.87
2019-06-10T11:51:47.845Z,1004.89
2019-06-10T11:52:47.851Z,1004.84
2019-06-10T11:53:48.397Z,1004.78
2019-06-10T11:54:58.228Z,1004.78
2019-06-10T11:55:47.855Z,1004.80
2019-06-10T11:56:47.861Z,1004.80
2019-06-10T11:57:47.963Z,1004.74
2019-06-10T11:58:47.946Z,1004.71
2019-06-10T11:59:48.054Z,1004.67
2019-06-10T12:00:48.692Z,1004.70
2019-06-10T12:01:49.206Z,1004.66
2019-06-10T12:02:48.221Z,1004.68
2019-06-10T12:03:48.466Z,1004.70
2019-06-10T12:04:48.365Z,1004.66
2019-06-10T12:05:49.070Z,1004.61